sensor_id;sensor_type;location;lat;lon;timestamp;pressure;altitude;pressure_sealevel;temperature;humidity
46199;BME280;31928;52.104;10.030;2023-03-04T00:00:56;101199.00;;;7.28;53.88
46199;BME280;31928;52.104;10.030;2023-03-04T00:03:22;101197.31;;;7.27;53.94
46199;BME280;31928;52.104;10.030;2023-03-04T00:05:49;101207.88;;;7.51;52.76
46199;BME280;31928;52.104;10.030;2023-03-04T00:08:16;101200.81;;;7.28;53.84
46199;BME280;31928;52.104;10.030;2023-03-04T00:10:42;101206.31;;;7.26;53.65
46199;BME280;31928;52.104;10.030;2023-03-04T00:13:09;101185.06;;;7.49;52.59
46199;BME280;31928;52.104;10.030;2023-03-04T00:15:35;101201.66;;;7.28;53.63
46199;BME280;31928;52.104;10.030;2023-03-04T00:18:02;101213.31;;;7.27;53.96
46199;BME280;31928;52.104;10.030;2023-03-04T00:20:29;101217.00;;;7.26;53.81
46199;BME280;31928;52.104;10.030;2023-03-04T00:22:55;101214.16;;;7.28;53.99
46199;BME280;31928;52.104;10.030;2023-03-04T00:25:22;101203.47;;;7.28;54.01
46199;BME280;31928;52.104;10.030;2023-03-04T00:27:48;101201.66;;;7.28;54.02
46199;BME280;31928;52.104;10.030;2023-03-04T00:30:15;101202.31;;;7.30;54.20
46199;BME280;31928;52.104;10.030;2023-03-04T00:32:42;101202.88;;;7.56;52.86
46199;BME280;31928;52.104;10.030;2023-03-04T00:35:08;101199.78;;;7.37;53.70
46199;BME280;31928;52.104;10.030;2023-03-04T00:37:35;101189.28;;;7.35;53.55
46199;BME280;31928;52.104;10.030;2023-03-04T00:40:02;101194.28;;;7.38;53.67
46199;BME280;31928;52.104;10.030;2023-03-04T00:42:29;101192.63;;;7.37;53.66
46199;BME280;31928;52.104;10.030;2023-03-04T00:44:55;101189.59;;;7.40;53.86
46199;BME280;31928;52.104;10.030;2023-03-04T00:47:22;101197.25;;;7.43;53.56
46199;BME280;31928;52.104;10.030;2023-03-04T00:49:51;101187.44;;;7.44;53.56
46199;BME280;31928;52.104;10.030;2023-03-04T00:52:17;101184.59;;;7.45;53.79
46199;BME280;31928;52.104;10.030;2023-03-04T00:54:44;101196.56;;;7.49;53.83
46199;BME280;31928;52.104;10.030;2023-03-04T00:57:11;101190.09;;;7.74;52.70
46199;BME280;31928;52.104;10.030;2023-03-04T00:59:37;101198.53;;;7.55;53.69
46199;BME280;31928;52.104;10.030;2023-03-04T01:02:06;101185.19;;;7.55;53.39
46199;BME280;31928;52.104;10.030;2023-03-04T01:04:32;101188.53;;;7.57;53.45
46199;BME280;31928;52.104;10.030;2023-03-04T01:06:59;101184.88;;;7.58;53.21
46199;BME280;31928;52.104;10.030;2023-03-04T01:09:26;101196.19;;;7.60;53.43
46199;BME280;31928;52.104;10.030;2023-03-04T01:11:52;101186.19;;;7.62;53.29
46199;BME280;31928;52.104;10.030;2023-03-04T01:14:19;101182.50;;;7.63;53.14
46199;BME280;31928;52.104;10.030;2023-03-04T01:16:47;101184.16;;;7.64;53.18
46199;BME280;31928;52.104;10.030;2023-03-04T01:19:14;101171.84;;;7.63;53.28
46199;BME280;31928;52.104;10.030;2023-03-04T01:21:41;101176.81;;;7.66;53.02
46199;BME280;31928;52.104;10.030;2023-03-04T01:24:08;101167.81;;;7.67;53.34
46199;BME280;31928;52.104;10.030;2023-03-04T01:26:34;101165.78;;;7.69;53.13
46199;BME280;31928;52.104;10.030;2023-03-04T01:29:01;101163.78;;;7.71;53.18
46199;BME280;31928;52.104;10.030;2023-03-04T01:31:28;101154.78;;;7.72;52.84
46199;BME280;31928;52.104;10.030;2023-03-04T01:33:55;101163.28;;;7.98;52.26
46199;BME280;31928;52.104;10.030;2023-03-04T01:36:22;101142.56;;;7.77;52.66
46199;BME280;31928;52.104;10.030;2023-03-04T01:38:48;101145.22;;;7.77;52.66
46199;BME280;31928;52.104;10.030;2023-03-04T01:41:16;101139.72;;;7.79;52.84
46199;BME280;31928;52.104;10.030;2023-03-04T01:43:44;101144.38;;;7.77;52.71
46199;BME280;31928;52.104;10.030;2023-03-04T01:46:11;101138.03;;;7.78;52.88
46199;BME280;31928;52.104;10.030;2023-03-04T01:48:40;101126.38;;;7.79;52.83
46199;BME280;31928;52.104;10.030;2023-03-04T01:51:12;101128.53;;;7.83;52.53
46199;BME280;31928;52.104;10.030;2023-03-04T01:53:39;101133.19;;;7.81;52.68
46199;BME280;31928;52.104;10.030;2023-03-04T01:58:38;101122.63;;;7.88;52.49
46199;BME280;31928;52.104;10.030;2023-03-04T02:01:05;101111.13;;;7.87;52.42
46199;BME280;31928;52.104;10.030;2023-03-04T02:03:32;101113.81;;;7.87;52.63
46199;BME280;31928;52.104;10.030;2023-03-04T02:05:58;101118.13;;;7.88;52.30
46199;BME280;31928;52.104;10.030;2023-03-04T02:08:28;101103.94;;;7.88;52.72
46199;BME280;31928;52.104;10.030;2023-03-04T02:10:54;101096.59;;;7.90;52.46
46199;BME280;31928;52.104;10.030;2023-03-04T02:13:27;101093.09;;;7.89;52.34
46199;BME280;31928;52.104;10.030;2023-03-04T02:15:53;101092.09;;;7.90;52.53
46199;BME280;31928;52.104;10.030;2023-03-04T02:18:23;101082.91;;;7.93;52.63
46199;BME280;31928;52.104;10.030;2023-03-04T02:23:41;101083.66;;;8.01;52.29
46199;BME280;31928;52.104;10.030;2023-03-04T02:26:16;101086.69;;;7.98;52.55
46199;BME280;31928;52.104;10.030;2023-03-04T02:28:44;101077.38;;;7.94;52.65
46199;BME280;31928;52.104;10.030;2023-03-04T02:31:27;101077.31;;;8.02;52.54
46199;BME280;31928;52.104;10.030;2023-03-04T02:33:58;101075.19;;;7.98;52.68
46199;BME280;31928;52.104;10.030;2023-03-04T02:36:26;101080.53;;;7.98;52.68
46199;BME280;31928;52.104;10.030;2023-03-04T02:38:54;101069.84;;;7.98;52.58
46199;BME280;31928;52.104;10.030;2023-03-04T02:41:24;101070.28;;;8.01;53.00
46199;BME280;31928;52.104;10.030;2023-03-04T02:43:53;101071.13;;;8.02;52.93
46199;BME280;31928;52.104;10.030;2023-03-04T02:46:20;101064.94;;;8.01;52.88
46199;BME280;31928;52.104;10.030;2023-03-04T02:48:47;101070.78;;;8.27;51.94
46199;BME280;31928;52.104;10.030;2023-03-04T02:51:14;101068.78;;;8.07;52.68
46199;BME280;31928;52.104;10.030;2023-03-04T02:53:40;101064.25;;;8.07;52.51
46199;BME280;31928;52.104;10.030;2023-03-04T02:56:07;101063.44;;;8.07;52.90
46199;BME280;31928;52.104;10.030;2023-03-04T02:58:33;101068.38;;;8.32;52.21
46199;BME280;31928;52.104;10.030;2023-03-04T03:01:00;101068.41;;;8.10;52.65
46199;BME280;31928;52.104;10.030;2023-03-04T03:03:27;101063.88;;;8.10;52.77
46199;BME280;31928;52.104;10.030;2023-03-04T03:05:53;101063.88;;;8.10;52.55
46199;BME280;31928;52.104;10.030;2023-03-04T03:08:20;101063.06;;;8.10;53.05
46199;BME280;31928;52.104;10.030;2023-03-04T03:10:47;101056.72;;;8.11;52.94
46199;BME280;31928;52.104;10.030;2023-03-04T03:13:13;101052.00;;;8.13;52.80
46199;BME280;31928;52.104;10.030;2023-03-04T03:15:40;101052.88;;;8.13;53.06
46199;BME280;31928;52.104;10.030;2023-03-04T03:18:08;101046.66;;;8.13;52.80
46199;BME280;31928;52.104;10.030;2023-03-04T03:20:36;101042.03;;;8.15;52.74
46199;BME280;31928;52.104;10.030;2023-03-04T03:23:02;101046.75;;;8.41;52.05
46199;BME280;31928;52.104;10.030;2023-03-04T03:25:29;101049.31;;;8.21;53.01
46199;BME280;31928;52.104;10.030;2023-03-04T03:27:56;101041.03;;;8.44;52.19
46199;BME280;31928;52.104;10.030;2023-03-04T03:30:22;101043.59;;;8.24;52.86
46199;BME280;31928;52.104;10.030;2023-03-04T03:32:49;101045.44;;;8.23;53.10
46199;BME280;31928;52.104;10.030;2023-03-04T03:35:16;101043.59;;;8.24;52.75
46199;BME280;31928;52.104;10.030;2023-03-04T03:37:42;101048.09;;;8.23;53.12
46199;BME280;31928;52.104;10.030;2023-03-04T03:40:10;101044.41;;;8.24;52.90
46199;BME280;31928;52.104;10.030;2023-03-04T03:42:37;101044.59;;;8.23;53.18
46199;BME280;31928;52.104;10.030;2023-03-04T03:45:03;101045.91;;;8.27;53.20
46199;BME280;31928;52.104;10.030;2023-03-04T03:47:30;101026.38;;;8.26;53.28
46199;BME280;31928;52.104;10.030;2023-03-04T03:49:57;101042.22;;;8.28;53.25
46199;BME280;31928;52.104;10.030;2023-03-04T03:52:23;101042.84;;;8.30;53.04
46199;BME280;31928;52.104;10.030;2023-03-04T03:54:50;101038.56;;;8.29;52.94
46199;BME280;31928;52.104;10.030;2023-03-04T03:57:17;101051.53;;;8.32;53.12
46199;BME280;31928;52.104;10.030;2023-03-04T03:59:43;101037.16;;;8.33;53.34
46199;BME280;31928;52.104;10.030;2023-03-04T04:02:10;101028.16;;;8.34;53.03
46199;BME280;31928;52.104;10.030;2023-03-04T04:04:36;101036.31;;;8.32;53.10
46199;BME280;31928;52.104;10.030;2023-03-04T04:07:03;101029.78;;;8.35;53.15
46199;BME280;31928;52.104;10.030;2023-03-04T04:09:30;101030.63;;;8.35;53.43
46199;BME280;31928;52.104;10.030;2023-03-04T04:11:56;101019.75;;;8.37;53.23
46199;BME280;31928;52.104;10.030;2023-03-04T04:14:23;101028.16;;;8.62;52.16
46199;BME280;31928;52.104;10.030;2023-03-04T04:19:23;101031.09;;;8.38;53.11
46199;BME280;31928;52.104;10.030;2023-03-04T04:21:50;101023.63;;;8.63;52.19
46199;BME280;31928;52.104;10.030;2023-03-04T04:24:18;101021.72;;;8.42;53.18
46199;BME280;31928;52.104;10.030;2023-03-04T04:26:44;101026.41;;;8.40;53.30
46199;BME280;31928;52.104;10.030;2023-03-04T04:29:13;101020.06;;;8.41;53.65
46199;BME280;31928;52.104;10.030;2023-03-04T04:31:39;101024.72;;;8.39;53.29
46199;BME280;31928;52.104;10.030;2023-03-04T04:34:06;101027.41;;;8.39;53.57
46199;BME280;31928;52.104;10.030;2023-03-04T04:36:33;101026.22;;;8.42;53.33
46199;BME280;31928;52.104;10.030;2023-03-04T04:38:59;101024.53;;;8.41;53.28
46199;BME280;31928;52.104;10.030;2023-03-04T04:41:29;101019.66;;;8.44;53.64
46199;BME280;31928;52.104;10.030;2023-03-04T04:43:57;101005.03;;;8.40;53.56
46199;BME280;31928;52.104;10.030;2023-03-04T04:46:23;101009.00;;;8.44;53.44
46199;BME280;31928;52.104;10.030;2023-03-04T04:48:50;101011.66;;;8.44;53.66
46199;BME280;31928;52.104;10.030;2023-03-04T04:51:16;101010.66;;;8.45;53.51
46199;BME280;31928;52.104;10.030;2023-03-04T04:53:43;101006.97;;;8.46;53.60
46199;BME280;31928;52.104;10.030;2023-03-04T04:56:11;101011.00;;;8.71;52.81
46199;BME280;31928;52.104;10.030;2023-03-04T04:58:38;101011.13;;;8.49;53.74
46199;BME280;31928;52.104;10.030;2023-03-04T05:01:04;100999.31;;;8.72;52.68
46199;BME280;31928;52.104;10.030;2023-03-04T05:03:33;101007.22;;;8.51;53.67
46199;BME280;31928;52.104;10.030;2023-03-04T05:06:00;101001.63;;;8.46;53.67
46199;BME280;31928;52.104;10.030;2023-03-04T05:08:26;101005.94;;;8.47;53.61
46199;BME280;31928;52.104;10.030;2023-03-04T05:10:53;101008.59;;;8.47;53.84
46199;BME280;31928;52.104;10.030;2023-03-04T05:13:19;100997.09;;;8.47;54.02
46199;BME280;31928;52.104;10.030;2023-03-04T05:15:46;101009.66;;;8.46;54.01
46199;BME280;31928;52.104;10.030;2023-03-04T05:18:13;101004.31;;;8.46;54.23
46199;BME280;31928;52.104;10.030;2023-03-04T05:20:39;101002.44;;;8.47;54.05
46199;BME280;31928;52.104;10.030;2023-03-04T05:23:06;101002.44;;;8.47;54.32
46199;BME280;31928;52.104;10.030;2023-03-04T05:25:32;100997.91;;;8.47;54.39
46199;BME280;31928;52.104;10.030;2023-03-04T05:27:59;100997.91;;;8.47;54.19
46199;BME280;31928;52.104;10.030;2023-03-04T05:30:27;100987.63;;;8.44;54.70
46199;BME280;31928;52.104;10.030;2023-03-04T05:32:54;100994.63;;;8.45;54.37
46199;BME280;31928;52.104;10.030;2023-03-04T05:35:20;100996.28;;;8.46;54.73
46199;BME280;31928;52.104;10.030;2023-03-04T05:37:47;100992.97;;;8.44;54.67
46199;BME280;31928;52.104;10.030;2023-03-04T05:40:13;100994.81;;;8.44;54.69
46199;BME280;31928;52.104;10.030;2023-03-04T05:42:40;100993.97;;;8.43;54.67
46199;BME280;31928;52.104;10.030;2023-03-04T05:45:07;100989.66;;;8.42;54.98
46199;BME280;31928;52.104;10.030;2023-03-04T05:47:33;100995.16;;;8.41;55.07
46199;BME280;31928;52.104;10.030;2023-03-04T05:50:00;100994.34;;;8.40;54.94
46199;BME280;31928;52.104;10.030;2023-03-04T05:52:26;101003.34;;;8.39;55.23
46199;BME280;31928;52.104;10.030;2023-03-04T05:54:54;100998.41;;;8.37;54.97
46199;BME280;31928;52.104;10.030;2023-03-04T05:57:20;101002.72;;;8.38;55.08
46199;BME280;31928;52.104;10.030;2023-03-04T05:59:47;100991.38;;;8.36;55.38
46199;BME280;31928;52.104;10.030;2023-03-04T06:02:15;100994.44;;;8.33;55.56
46199;BME280;31928;52.104;10.030;2023-03-04T06:04:41;100990.75;;;8.34;55.33
46199;BME280;31928;52.104;10.030;2023-03-04T06:07:08;100994.44;;;8.33;55.26
46199;BME280;31928;52.104;10.030;2023-03-04T06:09:34;100987.44;;;8.32;55.30
46199;BME280;31928;52.104;10.030;2023-03-04T06:12:01;100991.09;;;8.31;55.24
46199;BME280;31928;52.104;10.030;2023-03-04T06:14:27;100991.09;;;8.31;55.13
46199;BME280;31928;52.104;10.030;2023-03-04T06:16:54;100985.94;;;8.29;55.29
46199;BME280;31928;52.104;10.030;2023-03-04T06:19:21;101000.13;;;8.30;55.63
46199;BME280;31928;52.104;10.030;2023-03-04T06:21:47;100998.88;;;8.54;53.83
46199;BME280;31928;52.104;10.030;2023-03-04T06:24:14;100989.44;;;8.30;55.48
46199;BME280;31928;52.104;10.030;2023-03-04T06:26:40;100988.81;;;8.28;55.62
46199;BME280;31928;52.104;10.030;2023-03-04T06:29:07;100994.16;;;8.28;55.42
46199;BME280;31928;52.104;10.030;2023-03-04T06:31:34;100999.22;;;8.51;53.97
46199;BME280;31928;52.104;10.030;2023-03-04T06:34:00;100998.50;;;8.29;55.16
46199;BME280;31928;52.104;10.030;2023-03-04T06:36:27;100993.34;;;8.27;55.65
46199;BME280;31928;52.104;10.030;2023-03-04T06:38:53;101000.50;;;8.27;55.63
46199;BME280;31928;52.104;10.030;2023-03-04T06:41:20;101006.84;;;8.26;55.34
46199;BME280;31928;52.104;10.030;2023-03-04T06:43:46;101004.16;;;8.26;55.34
46199;BME280;31928;52.104;10.030;2023-03-04T06:46:13;101008.69;;;8.25;55.64
46199;BME280;31928;52.104;10.030;2023-03-04T06:48:39;101007.88;;;8.25;55.89
46199;BME280;31928;52.104;10.030;2023-03-04T06:51:07;101007.88;;;8.25;56.11
46199;BME280;31928;52.104;10.030;2023-03-04T06:53:34;101009.88;;;8.23;55.96
46199;BME280;31928;52.104;10.030;2023-03-04T06:56:01;101011.94;;;8.49;54.30
46199;BME280;31928;52.104;10.030;2023-03-04T06:58:27;101002.16;;;8.28;55.60
46199;BME280;31928;52.104;10.030;2023-03-04T07:00:54;101008.50;;;8.27;55.95
46199;BME280;31928;52.104;10.030;2023-03-04T07:03:21;101009.50;;;8.26;56.24
46199;BME280;31928;52.104;10.030;2023-03-04T07:05:49;101006.03;;;8.25;56.53
46199;BME280;31928;52.104;10.030;2023-03-04T07:08:16;101004.16;;;8.26;56.13
46199;BME280;31928;52.104;10.030;2023-03-04T07:10:42;100999.69;;;8.26;56.35
46199;BME280;31928;52.104;10.030;2023-03-04T07:13:09;100995.16;;;8.27;56.64
46199;BME280;31928;52.104;10.030;2023-03-04T07:15:36;100996.00;;;8.27;56.64
46199;BME280;31928;52.104;10.030;2023-03-04T07:18:03;101000.50;;;8.27;56.50
46199;BME280;31928;52.104;10.030;2023-03-04T07:20:29;101001.16;;;8.29;56.42
46199;BME280;31928;52.104;10.030;2023-03-04T07:22:57;100991.09;;;8.31;56.72
46199;BME280;31928;52.104;10.030;2023-03-04T07:25:23;100997.09;;;8.33;56.42
46199;BME280;31928;52.104;10.030;2023-03-04T07:27:50;100991.56;;;8.34;58.56
46199;BME280;31928;52.104;10.030;2023-03-04T07:30:16;100998.19;;;8.38;58.60
46199;BME280;31928;52.104;10.030;2023-03-04T07:32:43;101009.19;;;8.43;58.08
46199;BME280;31928;52.104;10.030;2023-03-04T07:35:09;101003.94;;;8.49;58.29
46199;BME280;31928;52.104;10.030;2023-03-04T07:37:36;101000.16;;;8.58;59.01
46199;BME280;31928;52.104;10.030;2023-03-04T07:40:03;101006.41;;;8.65;57.17
46199;BME280;31928;52.104;10.030;2023-03-04T07:42:29;101004.72;;;8.93;56.13
46199;BME280;31928;52.104;10.030;2023-03-04T07:44:56;101003.75;;;8.80;56.14
46199;BME280;31928;52.104;10.030;2023-03-04T07:47:22;101004.88;;;9.06;54.85
46199;BME280;31928;52.104;10.030;2023-03-04T07:49:49;100993.94;;;8.87;55.73
46199;BME280;31928;52.104;10.030;2023-03-04T07:52:16;100998.47;;;8.86;55.92
46199;BME280;31928;52.104;10.030;2023-03-04T07:54:42;100995.81;;;8.86;55.88
46199;BME280;31928;52.104;10.030;2023-03-04T07:57:09;101002.16;;;8.85;56.13
46199;BME280;31928;52.104;10.030;2023-03-04T07:59:35;101005.84;;;8.84;56.16
46199;BME280;31928;52.104;10.030;2023-03-04T08:02:02;101005.03;;;8.84;56.79
46199;BME280;31928;52.104;10.030;2023-03-04T08:04:28;101000.69;;;8.83;56.86
46199;BME280;31928;52.104;10.030;2023-03-04T08:06:55;101001.69;;;8.82;56.84
46199;BME280;31928;52.104;10.030;2023-03-04T08:09:21;101009.72;;;8.82;57.08
46199;BME280;31928;52.104;10.030;2023-03-04T08:11:48;101000.88;;;8.81;57.00
46199;BME280;31928;52.104;10.030;2023-03-04T08:14:14;100993.88;;;8.80;57.16
46199;BME280;31928;52.104;10.030;2023-03-04T08:16:41;101003.28;;;8.76;56.85
46199;BME280;31928;52.104;10.030;2023-03-04T08:19:08;100983.16;;;8.80;57.09
46199;BME280;31928;52.104;10.030;2023-03-04T08:21:36;100987.50;;;8.81;56.91
46199;BME280;31928;52.104;10.030;2023-03-04T08:24:04;100986.47;;;8.82;56.57
46199;BME280;31928;52.104;10.030;2023-03-04T08:26:37;100999.28;;;8.87;56.83
46199;BME280;31928;52.104;10.030;2023-03-04T08:29:08;100983.44;;;8.85;57.27
46199;BME280;31928;52.104;10.030;2023-03-04T08:31:35;100987.78;;;8.86;57.17
46199;BME280;31928;52.104;10.030;2023-03-04T08:34:02;100991.09;;;8.88;57.19
46199;BME280;31928;52.104;10.030;2023-03-04T08:36:33;100987.41;;;8.89;57.25
46199;BME280;31928;52.104;10.030;2023-03-04T08:38:59;100991.53;;;8.92;56.87
46199;BME280;31928;52.104;10.030;2023-03-04T08:41:29;100992.00;;;8.95;57.28
46199;BME280;31928;52.104;10.030;2023-03-04T08:43:56;100991.63;;;8.98;56.87
46199;BME280;31928;52.104;10.030;2023-03-04T08:46:22;100991.25;;;9.01;56.95
46199;BME280;31928;52.104;10.030;2023-03-04T08:48:49;100993.16;;;9.07;56.81
46199;BME280;31928;52.104;10.030;2023-03-04T08:51:15;101002.88;;;9.08;56.39
46199;BME280;31928;52.104;10.030;2023-03-04T08:53:42;101001.66;;;9.10;56.37
46199;BME280;31928;52.104;10.030;2023-03-04T08:56:09;100996.13;;;9.12;57.40
46199;BME280;31928;52.104;10.030;2023-03-04T08:58:36;100993.06;;;9.15;57.37
46199;BME280;31928;52.104;10.030;2023-03-04T09:01:03;100996.38;;;9.17;57.75
46199;BME280;31928;52.104;10.030;2023-03-04T09:03:30;100998.03;;;9.18;58.14
46199;BME280;31928;52.104;10.030;2023-03-04T09:05:57;101004.03;;;9.20;58.00
46199;BME280;31928;52.104;10.030;2023-03-04T09:08:23;100990.66;;;9.20;58.24
46199;BME280;31928;52.104;10.030;2023-03-04T09:10:52;101003.00;;;9.21;58.25
46199;BME280;31928;52.104;10.030;2023-03-04T09:13:20;100995.16;;;9.19;58.31
46199;BME280;31928;52.104;10.030;2023-03-04T09:15:49;100992.31;;;9.21;58.08
46199;BME280;31928;52.104;10.030;2023-03-04T09:18:18;100981.63;;;9.21;58.33
46199;BME280;31928;52.104;10.030;2023-03-04T09:20:45;100981.63;;;9.21;57.95
46199;BME280;31928;52.104;10.030;2023-03-04T09:23:12;100990.25;;;9.23;58.15
46199;BME280;31928;52.104;10.030;2023-03-04T09:25:40;100982.88;;;9.25;57.96
46199;BME280;31928;52.104;10.030;2023-03-04T09:28:07;100988.03;;;9.26;58.10
46199;BME280;31928;52.104;10.030;2023-03-04T09:30:34;100989.50;;;9.29;58.08
46199;BME280;31928;52.104;10.030;2023-03-04T09:33:00;100980.47;;;9.30;57.87
46199;BME280;31928;52.104;10.030;2023-03-04T09:35:27;100978.41;;;9.32;58.02
46199;BME280;31928;52.104;10.030;2023-03-04T09:37:56;100970.41;;;9.32;57.81
46199;BME280;31928;52.104;10.030;2023-03-04T09:40:44;100970.34;;;9.46;57.13
46199;BME280;31928;52.104;10.030;2023-03-04T09:43:20;100976.88;;;9.44;57.30
46199;BME280;31928;52.104;10.030;2023-03-04T09:45:54;100978.56;;;9.45;57.08
46199;BME280;31928;52.104;10.030;2023-03-04T09:48:24;100974.06;;;9.45;57.39
46199;BME280;31928;52.104;10.030;2023-03-04T09:51:05;100972.66;;;9.49;57.05
46199;BME280;31928;52.104;10.030;2023-03-04T09:56:10;100980.69;;;9.49;57.31
46199;BME280;31928;52.104;10.030;2023-03-04T10:01:37;100977.28;;;9.61;56.85
46199;BME280;31928;52.104;10.030;2023-03-04T10:04:17;100975.81;;;9.59;56.91
46199;BME280;31928;52.104;10.030;2023-03-04T10:06:47;100972.72;;;9.56;57.41
46199;BME280;31928;52.104;10.030;2023-03-04T10:09:42;100977.94;;;9.63;56.97
46199;BME280;31928;52.104;10.030;2023-03-04T10:12:13;100972.97;;;9.60;58.01
46199;BME280;31928;52.104;10.030;2023-03-04T10:14:48;100973.38;;;9.64;57.88
46199;BME280;31928;52.104;10.030;2023-03-04T10:17:29;100977.72;;;9.65;57.51
46199;BME280;31928;52.104;10.030;2023-03-04T10:20:06;100971.38;;;9.66;57.50
46199;BME280;31928;52.104;10.030;2023-03-04T10:22:47;100964.78;;;9.68;57.24
46199;BME280;31928;52.104;10.030;2023-03-04T10:25:23;100968.88;;;9.64;57.63
46199;BME280;31928;52.104;10.030;2023-03-04T10:27:54;100977.94;;;9.63;57.61
46199;BME280;31928;52.104;10.030;2023-03-04T10:30:40;100971.81;;;9.69;56.97
46199;BME280;31928;52.104;10.030;2023-03-04T10:33:15;100976.91;;;9.64;57.24
46199;BME280;31928;52.104;10.030;2023-03-04T10:35:45;100978.13;;;9.62;57.57
46199;BME280;31928;52.104;10.030;2023-03-04T10:38:15;100976.25;;;9.62;57.62
46199;BME280;31928;52.104;10.030;2023-03-04T10:40:41;100977.53;;;9.66;56.97
46199;BME280;31928;52.104;10.030;2023-03-04T10:43:18;100981.13;;;9.73;57.11
46199;BME280;31928;52.104;10.030;2023-03-04T10:45:46;100972.88;;;9.75;56.49
46199;BME280;31928;52.104;10.030;2023-03-04T10:48:26;100983.06;;;9.86;56.28
46199;BME280;31928;52.104;10.030;2023-03-04T10:50:53;100970.06;;;9.83;55.19
46199;BME280;31928;52.104;10.030;2023-03-04T10:53:30;100978.16;;;9.89;54.97
46199;BME280;31928;52.104;10.030;2023-03-04T10:55:59;100971.53;;;9.85;55.31
46199;BME280;31928;52.104;10.030;2023-03-04T10:58:25;100969.91;;;10.12;54.70
46199;BME280;31928;52.104;10.030;2023-03-04T11:01:01;100975.34;;;9.97;54.55
46199;BME280;31928;52.104;10.030;2023-03-04T11:06:09;100969.63;;;10.00;54.32
46199;BME280;31928;52.104;10.030;2023-03-04T11:08:39;100960.56;;;10.01;53.59
46199;BME280;31928;52.104;10.030;2023-03-04T11:11:40;100959.88;;;10.20;53.31
46199;BME280;31928;52.104;10.030;2023-03-04T11:14:34;100953.75;;;10.26;53.01
46199;BME280;31928;52.104;10.030;2023-03-04T11:19:43;100940.97;;;10.28;52.13
46199;BME280;31928;52.104;10.030;2023-03-04T11:22:14;100949.03;;;10.34;52.33
46199;BME280;31928;52.104;10.030;2023-03-04T11:24:42;100952.16;;;10.38;52.07
46199;BME280;31928;52.104;10.030;2023-03-04T11:27:17;100939.22;;;10.48;51.41
46199;BME280;31928;52.104;10.030;2023-03-04T11:29:54;100949.09;;;10.47;51.34
46199;BME280;31928;52.104;10.030;2023-03-04T11:32:26;100957.19;;;10.54;51.21
46199;BME280;31928;52.104;10.030;2023-03-04T11:35:15;100952.25;;;10.57;51.11
46199;BME280;31928;52.104;10.030;2023-03-04T11:37:58;100944.03;;;10.59;51.46
46199;BME280;31928;52.104;10.030;2023-03-04T11:40:34;100940.94;;;10.62;51.32
46199;BME280;31928;52.104;10.030;2023-03-04T11:43:15;100944.25;;;10.64;51.78
46199;BME280;31928;52.104;10.030;2023-03-04T11:54:03;100946.75;;;10.72;52.05
46199;BME280;31928;52.104;10.030;2023-03-04T11:56:40;100938.78;;;10.91;52.50
46199;BME280;31928;52.104;10.030;2023-03-04T12:07:35;100927.69;;;10.94;51.26
46199;BME280;31928;52.104;10.030;2023-03-04T12:18:43;100932.69;;;11.23;50.87
46199;BME280;31928;52.104;10.030;2023-03-04T12:30:15;100915.97;;;11.21;51.32
46199;BME280;31928;52.104;10.030;2023-03-04T12:32:59;100904.41;;;11.14;51.72
46199;BME280;31928;52.104;10.030;2023-03-04T12:38:29;100905.41;;;11.06;51.08
46199;BME280;31928;52.104;10.030;2023-03-04T12:43:40;100897.56;;;11.05;50.60
46199;BME280;31928;52.104;10.030;2023-03-04T12:46:21;100904.59;;;11.12;51.40
46199;BME280;31928;52.104;10.030;2023-03-04T12:49:01;100904.59;;;11.12;51.07
46199;BME280;31928;52.104;10.030;2023-03-04T12:57:11;100884.78;;;11.07;50.08
46199;BME280;31928;52.104;10.030;2023-03-04T13:00:05;100883.13;;;11.12;51.10
46199;BME280;31928;52.104;10.030;2023-03-04T13:10:49;100885.16;;;10.97;49.92
46199;BME280;31928;52.104;10.030;2023-03-04T13:13:35;100900.03;;;11.06;49.54
46199;BME280;31928;52.104;10.030;2023-03-04T13:18:54;100891.72;;;10.88;48.26
46199;BME280;31928;52.104;10.030;2023-03-04T13:21:23;100887.41;;;10.87;48.06
46199;BME280;31928;52.104;10.030;2023-03-04T13:23:51;100893.78;;;10.80;48.51
46199;BME280;31928;52.104;10.030;2023-03-04T13:26:33;100884.91;;;10.79;48.56
46199;BME280;31928;52.104;10.030;2023-03-04T13:34:45;100863.06;;;10.82;49.72
46199;BME280;31928;52.104;10.030;2023-03-04T13:37:32;100878.53;;;10.87;49.75
46199;BME280;31928;52.104;10.030;2023-03-04T13:40:22;100876.50;;;10.95;49.55
46199;BME280;31928;52.104;10.030;2023-03-04T13:42:54;100859.75;;;10.93;48.90
46199;BME280;31928;52.104;10.030;2023-03-04T13:45:35;100867.03;;;11.06;49.37
46199;BME280;31928;52.104;10.030;2023-03-04T13:48:07;100865.59;;;11.10;48.83
46199;BME280;31928;52.104;10.030;2023-03-04T13:50:49;100872.41;;;11.12;47.93
46199;BME280;31928;52.104;10.030;2023-03-04T13:53:38;100878.59;;;11.26;48.58
46199;BME280;31928;52.104;10.030;2023-03-04T13:59:01;100876.53;;;11.21;48.61
46199;BME280;31928;52.104;10.030;2023-03-04T14:01:31;100873.22;;;11.13;46.95
46199;BME280;31928;52.104;10.030;2023-03-04T14:03:58;100881.88;;;11.08;46.57
46199;BME280;31928;52.104;10.030;2023-03-04T14:06:28;100876.91;;;11.05;47.02
46199;BME280;31928;52.104;10.030;2023-03-04T14:08:55;100872.38;;;10.99;46.80
46199;BME280;31928;52.104;10.030;2023-03-04T14:11:35;100870.50;;;11.00;47.44
46199;BME280;31928;52.104;10.030;2023-03-04T14:14:14;100876.72;;;10.94;47.03
46199;BME280;31928;52.104;10.030;2023-03-04T14:16:50;100874.00;;;10.87;47.13
46199;BME280;31928;52.104;10.030;2023-03-04T14:19:32;100867.59;;;10.88;48.02
46199;BME280;31928;52.104;10.030;2023-03-04T14:22:01;100868.19;;;10.77;47.67